sensor_id;sensor_type;location;lat;lon;timestamp;pressure;altitude;pressure_sealevel;temperature;humidity
60307;BME280;46155;52.364;6.580;2023-08-17T03:01:22;101754.38;;;15.77;100.00
60307;BME280;46155;52.364;6.580;2023-08-17T03:03:48;101752.63;;;15.77;100.00
60307;BME280;46155;52.364;6.580;2023-08-17T03:06:13;101753.50;;;15.76;100.00
60307;BME280;46155;52.364;6.580;2023-08-17T03:08:38;101749.81;;;15.74;100.00
60307;BME280;46155;52.364;6.580;2023-08-17T03:11:04;101757.63;;;15.88;100.00
60307;BME280;46155;52.364;6.580;2023-08-17T03:13:32;101750.84;;;15.76;100.00
60307;BME280;46155;52.364;6.580;2023-08-17T03:15:57;101748.47;;;15.81;100.00
60307;BME280;46155;52.364;6.580;2023-08-17T03:18:23;101753.88;;;15.67;100.00
60307;BME280;46155;52.364;6.580;2023-08-17T03:20:48;101759.72;;;15.62;100.00
60307;BME280;46155;52.364;6.580;2023-08-17T03:23:13;101751.63;;;15.59;100.00
60307;BME280;46155;52.364;6.580;2023-08-17T03:25:39;101769.16;;;15.57;100.00
60307;BME280;46155;52.364;6.580;2023-08-17T03:28:04;101755.38;;;15.62;100.00
60307;BME280;46155;52.364;6.580;2023-08-17T03:30:29;101762.75;;;15.68;100.00
60307;BME280;46155;52.364;6.580;2023-08-17T03:32:55;101759.56;;;15.59;100.00
60307;BME280;46155;52.364;6.580;2023-08-17T03:35:20;101758.31;;;15.52;100.00
60307;BME280;46155;52.364;6.580;2023-08-17T03:37:45;101760.06;;;15.52;100.00
60307;BME280;46155;52.364;6.580;2023-08-17T03:40:11;101759.41;;;15.56;100.00
60307;BME280;46155;52.364;6.580;2023-08-17T03:42:36;101762.88;;;15.55;100.00
60307;BME280;46155;52.364;6.580;2023-08-17T03:45:03;101764.38;;;15.49;100.00
60307;BME280;46155;52.364;6.580;2023-08-17T03:47:28;101756.91;;;15.42;100.00
60307;BME280;46155;52.364;6.580;2023-08-17T03:49:54;101774.75;;;15.46;100.00
60307;BME280;46155;52.364;6.580;2023-08-17T03:52:19;101772.03;;;15.45;100.00
60307;BME280;46155;52.364;6.580;2023-08-17T03:54:45;101774.19;;;15.52;100.00
60307;BME280;46155;52.364;6.580;2023-08-17T03:57:11;101777.13;;;15.57;100.00
60307;BME280;46155;52.364;6.580;2023-08-17T03:59:36;101778.19;;;15.60;100.00
60307;BME280;46155;52.364;6.580;2023-08-17T04:02:02;101777.34;;;15.61;100.00
60307;BME280;46155;52.364;6.580;2023-08-17T04:04:27;101781.22;;;15.52;100.00
60307;BME280;46155;52.364;6.580;2023-08-17T04:06:52;101771.66;;;15.54;100.00
60307;BME280;46155;52.364;6.580;2023-08-17T04:09:18;101778.19;;;15.60;100.00
60307;BME280;46155;52.364;6.580;2023-08-17T04:11:44;101776.72;;;15.65;100.00
60307;BME280;46155;52.364;6.580;2023-08-17T04:14:09;101772.16;;;15.63;100.00
60307;BME280;46155;52.364;6.580;2023-08-17T04:16:35;101769.00;;;15.70;100.00
60307;BME280;46155;52.364;6.580;2023-08-17T04:19:00;101768.13;;;15.70;100.00
60307;BME280;46155;52.364;6.580;2023-08-17T04:21:26;101772.66;;;15.72;100.00
60307;BME280;46155;52.364;6.580;2023-08-17T04:23:51;101771.56;;;15.69;100.00
60307;BME280;46155;52.364;6.580;2023-08-17T04:26:16;101774.31;;;15.70;100.00
60307;BME280;46155;52.364;6.580;2023-08-17T04:28:42;101768.53;;;15.61;100.00
60307;BME280;46155;52.364;6.580;2023-08-17T04:31:07;101769.66;;;15.49;100.00
60307;BME280;46155;52.364;6.580;2023-08-17T04:33:32;101777.41;;;15.46;100.00
60307;BME280;46155;52.364;6.580;2023-08-17T04:35:58;101771.66;;;15.54;100.00
60307;BME280;46155;52.364;6.580;2023-08-17T04:38:24;101771.28;;;15.47;100.00
60307;BME280;46155;52.364;6.580;2023-08-17T04:40:50;101763.66;;;15.37;100.00
60307;BME280;46155;52.364;6.580;2023-08-17T04:43:15;101767.66;;;15.45;100.00
60307;BME280;46155;52.364;6.580;2023-08-17T04:45:40;101759.22;;;15.53;100.00
60307;BME280;46155;52.364;6.580;2023-08-17T04:48:06;101760.69;;;15.47;100.00
60307;BME280;46155;52.364;6.580;2023-08-17T04:50:32;101754.59;;;15.48;100.00
60307;BME280;46155;52.364;6.580;2023-08-17T04:52:57;101750.03;;;15.46;100.00
60307;BME280;46155;52.364;6.580;2023-08-17T04:55:22;101751.69;;;15.44;100.00
60307;BME280;46155;52.364;6.580;2023-08-17T04:57:48;101752.75;;;15.47;100.00
60307;BME280;46155;52.364;6.580;2023-08-17T05:00:15;101744.00;;;15.48;100.00
60307;BME280;46155;52.364;6.580;2023-08-17T05:02:41;101755.84;;;15.55;100.00
60307;BME280;46155;52.364;6.580;2023-08-17T05:05:09;101732.59;;;15.49;100.00
60307;BME280;46155;52.364;6.580;2023-08-17T05:07:35;101737.69;;;15.46;100.00
60307;BME280;46155;52.364;6.580;2023-08-17T05:10:01;101743.75;;;15.44;100.00
60307;BME280;46155;52.364;6.580;2023-08-17T05:12:27;101744.81;;;15.47;100.00
60307;BME280;46155;52.364;6.580;2023-08-17T05:14:52;101751.13;;;15.49;100.00
60307;BME280;46155;52.364;6.580;2023-08-17T05:17:18;101745.56;;;15.45;100.00
60307;BME280;46155;52.364;6.580;2023-08-17T05:19:43;101739.38;;;15.44;100.00
60307;BME280;46155;52.364;6.580;2023-08-17T05:22:12;101747.06;;;15.40;100.00
60307;BME280;46155;52.364;6.580;2023-08-17T05:24:38;101729.91;;;15.33;100.00
60307;BME280;46155;52.364;6.580;2023-08-17T05:27:04;101742.81;;;15.43;100.00
60307;BME280;46155;52.364;6.580;2023-08-17T05:29:30;101747.38;;;15.46;100.00
60307;BME280;46155;52.364;6.580;2023-08-17T05:31:57;101733.75;;;15.38;100.00
60307;BME280;46155;52.364;6.580;2023-08-17T05:34:23;101736.31;;;15.37;100.00
60307;BME280;46155;52.364;6.580;2023-08-17T05:36:48;101723.88;;;15.36;100.00
60307;BME280;46155;52.364;6.580;2023-08-17T05:39:13;101741.03;;;15.42;100.00
60307;BME280;46155;52.364;6.580;2023-08-17T05:41:39;101738.28;;;15.41;100.00
60307;BME280;46155;52.364;6.580;2023-08-17T05:44:04;101734.25;;;15.47;100.00
60307;BME280;46155;52.364;6.580;2023-08-17T05:46:32;101735.25;;;15.49;100.00
60307;BME280;46155;52.364;6.580;2023-08-17T05:48:57;101739.91;;;15.54;100.00
60307;BME280;46155;52.364;6.580;2023-08-17T05:51:24;101740.78;;;15.54;100.00
60307;BME280;46155;52.364;6.580;2023-08-17T05:53:49;101733.75;;;15.55;100.00
60307;BME280;46155;52.364;6.580;2023-08-17T05:56:15;101741.69;;;15.55;100.00
60307;BME280;46155;52.364;6.580;2023-08-17T05:58:40;101732.78;;;15.53;100.00
60307;BME280;46155;52.364;6.580;2023-08-17T06:01:09;101739.41;;;15.61;100.00
60307;BME280;46155;52.364;6.580;2023-08-17T06:03:36;101734.94;;;15.60;100.00
60307;BME280;46155;52.364;6.580;2023-08-17T06:06:02;101745.03;;;15.67;100.00
60307;BME280;46155;52.364;6.580;2023-08-17T06:08:27;101754.31;;;15.75;100.00
60307;BME280;46155;52.364;6.580;2023-08-17T06:10:53;101742.53;;;15.70;100.00
60307;BME280;46155;52.364;6.580;2023-08-17T06:13:18;101744.88;;;15.80;100.00
60307;BME280;46155;52.364;6.580;2023-08-17T06:15:44;101740.44;;;15.79;100.00
60307;BME280;46155;52.364;6.580;2023-08-17T06:18:09;101734.75;;;15.73;100.00
60307;BME280;46155;52.364;6.580;2023-08-17T06:20:34;101744.69;;;15.77;100.00
60307;BME280;46155;52.364;6.580;2023-08-17T06:23:00;101757.13;;;15.78;100.00
60307;BME280;46155;52.364;6.580;2023-08-17T06:25:25;101751.13;;;15.81;100.00
60307;BME280;46155;52.364;6.580;2023-08-17T06:27:51;101754.00;;;15.86;100.00
60307;BME280;46155;52.364;6.580;2023-08-17T06:30:17;101750.69;;;15.90;100.00
60307;BME280;46155;52.364;6.580;2023-08-17T06:32:42;101748.88;;;15.89;100.00
60307;BME280;46155;52.364;6.580;2023-08-17T06:35:09;101742.50;;;15.85;100.00
60307;BME280;46155;52.364;6.580;2023-08-17T06:37:34;101744.41;;;16.04;100.00
60307;BME280;46155;52.364;6.580;2023-08-17T06:40:00;101750.72;;;16.06;100.00
60307;BME280;46155;52.364;6.580;2023-08-17T06:42:25;101744.97;;;15.98;100.00
60307;BME280;46155;52.364;6.580;2023-08-17T06:44:51;101759.31;;;16.02;100.00
60307;BME280;46155;52.364;6.580;2023-08-17T06:47:16;101763.19;;;16.09;100.00
60307;BME280;46155;52.364;6.580;2023-08-17T06:49:41;101751.53;;;16.05;100.00
60307;BME280;46155;52.364;6.580;2023-08-17T06:52:07;101757.81;;;16.07;100.00
60307;BME280;46155;52.364;6.580;2023-08-17T06:54:32;101763.38;;;16.12;100.00
60307;BME280;46155;52.364;6.580;2023-08-17T06:56:58;101760.97;;;16.16;100.00
60307;BME280;46155;52.364;6.580;2023-08-17T06:59:23;101763.84;;;16.21;100.00
60307;BME280;46155;52.364;6.580;2023-08-17T07:01:49;101765.91;;;16.27;100.00
60307;BME280;46155;52.364;6.580;2023-08-17T07:04:14;101777.00;;;16.36;100.00
60307;BME280;46155;52.364;6.580;2023-08-17T07:06:40;101770.69;;;16.34;100.00
60307;BME280;46155;52.364;6.580;2023-08-17T07:09:06;101767.09;;;16.50;100.00
60307;BME280;46155;52.364;6.580;2023-08-17T07:11:32;101765.50;;;16.70;100.00
60307;BME280;46155;52.364;6.580;2023-08-17T07:13:57;101772.31;;;16.65;100.00
60307;BME280;46155;52.364;6.580;2023-08-17T07:16:23;101772.66;;;16.55;100.00
60307;BME280;46155;52.364;6.580;2023-08-17T07:18:49;101772.06;;;16.60;100.00
60307;BME280;46155;52.364;6.580;2023-08-17T07:21:14;101784.09;;;16.88;100.00
60307;BME280;46155;52.364;6.580;2023-08-17T07:23:43;101788.47;;;17.04;100.00
60307;BME280;46155;52.364;6.580;2023-08-17T07:26:09;101791.13;;;17.04;100.00
60307;BME280;46155;52.364;6.580;2023-08-17T07:28:34;101792.03;;;17.23;100.00
60307;BME280;46155;52.364;6.580;2023-08-17T07:31:00;101802.16;;;17.13;100.00
60307;BME280;46155;52.364;6.580;2023-08-17T07:33:25;101789.06;;;17.16;100.00
60307;BME280;46155;52.364;6.580;2023-08-17T07:35:50;101796.66;;;17.27;100.00
60307;BME280;46155;52.364;6.580;2023-08-17T07:38:16;101792.56;;;17.15;100.00
60307;BME280;46155;52.364;6.580;2023-08-17T07:40:41;101788.91;;;17.13;100.00
60307;BME280;46155;52.364;6.580;2023-08-17T07:43:08;101802.41;;;17.18;100.00
60307;BME280;46155;52.364;6.580;2023-08-17T07:45:33;101800.28;;;17.29;100.00
60307;BME280;46155;52.364;6.580;2023-08-17T07:47:59;101805.66;;;17.30;100.00
60307;BME280;46155;52.364;6.580;2023-08-17T07:50:24;101803.44;;;17.03;100.00
60307;BME280;46155;52.364;6.580;2023-08-17T07:52:49;101798.44;;;16.92;100.00
60307;BME280;46155;52.364;6.580;2023-08-17T07:55:15;101794.38;;;16.82;100.00
60307;BME280;46155;52.364;6.580;2023-08-17T07:57:40;101803.41;;;16.85;100.00
60307;BME280;46155;52.364;6.580;2023-08-17T08:00:06;101805.88;;;16.82;100.00
60307;BME280;46155;52.364;6.580;2023-08-17T08:02:31;101811.13;;;16.81;100.00
60307;BME280;46155;52.364;6.580;2023-08-17T08:04:56;101804.91;;;16.80;100.00
60307;BME280;46155;52.364;6.580;2023-08-17T08:07:22;101803.09;;;16.79;100.00
60307;BME280;46155;52.364;6.580;2023-08-17T08:09:47;101814.03;;;16.85;100.00
60307;BME280;46155;52.364;6.580;2023-08-17T08:12:12;101803.41;;;16.85;100.00
60307;BME280;46155;52.364;6.580;2023-08-17T08:14:37;101800.19;;;16.75;100.00
60307;BME280;46155;52.364;6.580;2023-08-17T08:17:03;101802.09;;;16.77;100.00
60307;BME280;46155;52.364;6.580;2023-08-17T08:19:28;101802.78;;;16.73;100.00
60307;BME280;46155;52.364;6.580;2023-08-17T08:21:53;101808.09;;;16.73;100.00
60307;BME280;46155;52.364;6.580;2023-08-17T08:24:19;101807.75;;;16.67;100.00
60307;BME280;46155;52.364;6.580;2023-08-17T08:26:44;101813.22;;;16.70;100.00
60307;BME280;46155;52.364;6.580;2023-08-17T08:29:09;101802.63;;;16.70;100.00
60307;BME280;46155;52.364;6.580;2023-08-17T08:31:35;101812.44;;;16.73;100.00
60307;BME280;46155;52.364;6.580;2023-08-17T08:34:00;101814.78;;;16.66;100.00
60307;BME280;46155;52.364;6.580;2023-08-17T08:36:25;101811.78;;;16.77;100.00
60307;BME280;46155;52.364;6.580;2023-08-17T08:38:51;101817.75;;;16.89;100.00
60307;BME280;46155;52.364;6.580;2023-08-17T08:41:16;101820.41;;;16.89;100.00
60307;BME280;46155;52.364;6.580;2023-08-17T08:43:42;101818.09;;;16.79;100.00
60307;BME280;46155;52.364;6.580;2023-08-17T08:46:08;101826.78;;;16.76;100.00
60307;BME280;46155;52.364;6.580;2023-08-17T08:48:34;101809.31;;;16.80;100.00
60307;BME280;46155;52.364;6.580;2023-08-17T08:51:01;101811.03;;;16.79;100.00
60307;BME280;46155;52.364;6.580;2023-08-17T08:53:37;101814.03;;;16.85;100.00
60307;BME280;46155;52.364;6.580;2023-08-17T08:56:03;101811.13;;;16.81;100.00
60307;BME280;46155;52.364;6.580;2023-08-17T08:58:31;101814.69;;;16.81;100.00
60307;BME280;46155;52.364;6.580;2023-08-17T09:00:57;101811.72;;;16.75;100.00
60307;BME280;46155;52.364;6.580;2023-08-17T09:03:23;101807.94;;;16.70;100.00
60307;BME280;46155;52.364;6.580;2023-08-17T09:05:50;101794.22;;;16.79;100.00
60307;BME280;46155;52.364;6.580;2023-08-17T09:08:21;101798.13;;;16.85;100.00
60307;BME280;46155;52.364;6.580;2023-08-17T09:10:47;101786.13;;;16.76;100.00
60307;BME280;46155;52.364;6.580;2023-08-17T09:13:12;101797.63;;;16.76;100.00
60307;BME280;46155;52.364;6.580;2023-08-17T09:15:37;101804.75;;;16.77;100.00
60307;BME280;46155;52.364;6.580;2023-08-17T09:18:05;101804.59;;;16.74;100.00
60307;BME280;46155;52.364;6.580;2023-08-17T09:20:40;101803.41;;;16.85;100.00
60307;BME280;46155;52.364;6.580;2023-08-17T09:23:10;101810.88;;;16.93;100.00
60307;BME280;46155;52.364;6.580;2023-08-17T09:25:38;101809.22;;;16.95;100.00
60307;BME280;46155;52.364;6.580;2023-08-17T09:28:14;101800.09;;;16.90;100.00
60307;BME280;46155;52.364;6.580;2023-08-17T09:30:56;101806.16;;;16.87;100.00
60307;BME280;46155;52.364;6.580;2023-08-17T09:33:26;101807.88;;;16.86;100.00
60307;BME280;46155;52.364;6.580;2023-08-17T09:35:53;101797.25;;;16.86;100.00
60307;BME280;46155;52.364;6.580;2023-08-17T09:38:19;101795.13;;;16.96;100.00
60307;BME280;46155;52.364;6.580;2023-08-17T09:40:46;101796.94;;;16.97;100.00
60307;BME280;46155;52.364;6.580;2023-08-17T09:43:12;101801.53;;;17.01;100.00
60307;BME280;46155;52.364;6.580;2023-08-17T09:45:38;101800.44;;;16.96;100.00
60307;BME280;46155;52.364;6.580;2023-08-17T09:48:05;101796.03;;;16.96;100.00
60307;BME280;46155;52.364;6.580;2023-08-17T09:50:31;101790.78;;;16.98;100.00
60307;BME280;46155;52.364;6.580;2023-08-17T09:52:57;101794.75;;;17.06;100.00
60307;BME280;46155;52.364;6.580;2023-08-17T09:55:22;101792.38;;;17.12;100.00
60307;BME280;46155;52.364;6.580;2023-08-17T09:57:51;101802.72;;;17.24;100.00
60307;BME280;46155;52.364;6.580;2023-08-17T10:00:20;101796.19;;;17.17;100.00
60307;BME280;46155;52.364;6.580;2023-08-17T10:02:49;101786.94;;;17.09;100.00
60307;BME280;46155;52.364;6.580;2023-08-17T10:05:18;101791.94;;;17.03;100.00
60307;BME280;46155;52.364;6.580;2023-08-17T10:07:49;101789.38;;;17.04;100.00
60307;BME280;46155;52.364;6.580;2023-08-17T10:10:26;101785.13;;;17.08;100.00
60307;BME280;46155;52.364;6.580;2023-08-17T10:13:05;101786.72;;;17.04;100.00
60307;BME280;46155;52.364;6.580;2023-08-17T10:15:34;101793.59;;;17.01;100.00
60307;BME280;46155;52.364;6.580;2023-08-17T10:18:24;101784.22;;;17.08;100.00
60307;BME280;46155;52.364;6.580;2023-08-17T10:21:02;101779.44;;;17.18;100.00
60307;BME280;46155;52.364;6.580;2023-08-17T10:23:27;101767.81;;;17.34;100.00
60307;BME280;46155;52.364;6.580;2023-08-17T10:25:53;101772.97;;;17.49;100.00
60307;BME280;46155;52.364;6.580;2023-08-17T10:28:20;101771.84;;;17.44;100.00
60307;BME280;46155;52.364;6.580;2023-08-17T10:30:46;101762.03;;;17.43;100.00
60307;BME280;46155;52.364;6.580;2023-08-17T10:33:14;101774.81;;;17.32;100.00
60307;BME280;46155;52.364;6.580;2023-08-17T10:35:40;101764.88;;;17.28;100.00
60307;BME280;46155;52.364;6.580;2023-08-17T10:38:07;101772.91;;;17.30;100.00
60307;BME280;46155;52.364;6.580;2023-08-17T10:40:36;101772.84;;;17.28;100.00
60307;BME280;46155;52.364;6.580;2023-08-17T10:43:02;101765.31;;;17.19;100.00
60307;BME280;46155;52.364;6.580;2023-08-17T10:45:29;101768.59;;;17.32;100.00
60307;BME280;46155;52.364;6.580;2023-08-17T10:50:33;101769.19;;;17.44;100.00
60307;BME280;46155;52.364;6.580;2023-08-17T10:53:12;101765.38;;;17.39;100.00
60307;BME280;46155;52.364;6.580;2023-08-17T10:55:40;101755.09;;;17.45;100.00
60307;BME280;46155;52.364;6.580;2023-08-17T10:58:06;101761.66;;;17.53;100.00
60307;BME280;46155;52.364;6.580;2023-08-17T11:00:39;101766.44;;;17.61;100.00
60307;BME280;46155;52.364;6.580;2023-08-17T11:03:06;101760.28;;;17.81;100.00
60307;BME280;46155;52.364;6.580;2023-08-17T11:08:10;101758.78;;;17.86;100.00
60307;BME280;46155;52.364;6.580;2023-08-17T11:10:36;101763.44;;;17.91;100.00
60307;BME280;46155;52.364;6.580;2023-08-17T11:13:03;101759.22;;;17.96;100.00
60307;BME280;46155;52.364;6.580;2023-08-17T11:15:41;101761.88;;;18.15;100.00
60307;BME280;46155;52.364;6.580;2023-08-17T11:18:08;101761.81;;;18.33;100.00
60307;BME280;46155;52.364;6.580;2023-08-17T11:20:35;101759.41;;;18.20;100.00
60307;BME280;46155;52.364;6.580;2023-08-17T11:23:01;101767.13;;;18.33;100.00
60307;BME280;46155;52.364;6.580;2023-08-17T11:25:27;101763.97;;;18.22;100.00
60307;BME280;46155;52.364;6.580;2023-08-17T11:27:54;101761.88;;;18.15;100.00
60307;BME280;46155;52.364;6.580;2023-08-17T11:30:22;101759.91;;;18.11;100.00
60307;BME280;46155;52.364;6.580;2023-08-17T11:32:50;101759.66;;;18.24;100.00
60307;BME280;46155;52.364;6.580;2023-08-17T11:35:16;101765.66;;;18.20;100.00
60307;BME280;46155;52.364;6.580;2023-08-17T11:37:42;101762.31;;;18.24;100.00
60307;BME280;46155;52.364;6.580;2023-08-17T11:40:12;101754.59;;;18.11;100.00
60307;BME280;46155;52.364;6.580;2023-08-17T11:42:38;101759.78;;;18.08;100.00
60307;BME280;46155;52.364;6.580;2023-08-17T11:45:05;101761.59;;;18.09;100.00
60307;BME280;46155;52.364;6.580;2023-08-17T11:47:32;101766.22;;;17.94;100.00
60307;BME280;46155;52.364;6.580;2023-08-17T11:50:01;101763.97;;;18.03;100.00
60307;BME280;46155;52.364;6.580;2023-08-17T11:52:28;101761.47;;;18.06;100.00
60307;BME280;46155;52.364;6.580;2023-08-17T11:54:57;101757.75;;;18.02;100.00
60307;BME280;46155;52.364;6.580;2023-08-17T11:57:22;101756.25;;;17.89;100.00
60307;BME280;46155;52.364;6.580;2023-08-17T11:59:48;101752.53;;;17.86;100.00
60307;BME280;46155;52.364;6.580;2023-08-17T12:02:13;101749.34;;;17.93;100.00
60307;BME280;46155;52.364;6.580;2023-08-17T12:04:38;101748.47;;;17.93;100.00
60307;BME280;46155;52.364;6.580;2023-08-17T12:07:05;101746.94;;;17.98;100.00
60307;BME280;46155;52.364;6.580;2023-08-17T12:09:33;101744.72;;;17.89;100.00
60307;BME280;46155;52.364;6.580;2023-08-17T12:11:59;101743.22;;;17.94;100.00
60307;BME280;46155;52.364;6.580;2023-08-17T12:14:27;101742.38;;;17.95;100.00
60307;BME280;46155;52.364;6.580;2023-08-17T12:16:52;101744.84;;;17.91;100.00
60307;BME280;46155;52.364;6.580;2023-08-17T12:19:20;101741.00;;;17.85;100.00
60307;BME280;46155;52.364;6.580;2023-08-17T12:21:48;101737.59;;;17.88;100.00
60307;BME280;46155;52.364;6.580;2023-08-17T12:24:13;101742.97;;;17.89;100.00
60307;BME280;46155;52.364;6.580;2023-08-17T12:26:45;101747.88;;;18.00;100.00
60307;BME280;46155;52.364;6.580;2023-08-17T12:29:11;101748.88;;;18.02;100.00
60307;BME280;46155;52.364;6.580;2023-08-17T12:31:37;101752.50;;;18.04;100.00
60307;BME280;46155;52.364;6.580;2023-08-17T12:34:03;101752.88;;;18.12;100.00
60307;BME280;46155;52.364;6.580;2023-08-17T12:36:34;101759.22;;;18.15;100.00
60307;BME280;46155;52.364;6.580;2023-08-17T12:39:00;101755.88;;;18.00;100.00
60307;BME280;46155;52.364;6.580;2023-08-17T12:41:26;101753.00;;;17.95;100.00
60307;BME280;46155;52.364;6.580;2023-08-17T12:43:51;101751.19;;;17.94;100.00
60307;BME280;46155;52.364;6.580;2023-08-17T12:46:19;101756.78;;;18.00;100.00
60307;BME280;46155;52.364;6.580;2023-08-17T12:48:44;101752.94;;;17.94;100.00
60307;BME280;46155;52.364;6.580;2023-08-17T12:51:10;101751.53;;;18.02;100.00
60307;BME280;46155;52.364;6.580;2023-08-17T12:53:35;101755.22;;;18.05;100.00
60307;BME280;46155;52.364;6.580;2023-08-17T12:56:00;101763.69;;;18.16;100.00
60307;BME280;46155;52.364;6.580;2023-08-17T12:58:26;101760.06;;;18.14;100.00
60307;BME280;46155;52.364;6.580;2023-08-17T13:00:51;101760.47;;;18.23;100.00
60307;BME280;46155;52.364;6.580;2023-08-17T13:03:19;101745.38;;;18.03;100.00
60307;BME280;46155;52.364;6.580;2023-08-17T13:05:44;101757.06;;;18.06;100.00
60307;BME280;46155;52.364;6.580;2023-08-17T13:08:10;101749.84;;;18.04;100.00
60307;BME280;46155;52.364;6.580;2023-08-17T13:10:36;101752.50;;;18.04;100.00
60307;BME280;46155;52.364;6.580;2023-08-17T13:13:02;101759.22;;;18.15;100.00
60307;BME280;46155;52.364;6.580;2023-08-17T13:15:27;101767.31;;;18.18;100.00
60307;BME280;46155;52.364;6.580;2023-08-17T13:17:52;101766.44;;;18.18;100.00
60307;BME280;46155;52.364;6.580;2023-08-17T13:20:18;101754.59;;;18.11;100.00
60307;BME280;46155;52.364;6.580;2023-08-17T13:22:43;101761.09;;;18.18;100.00
60307;BME280;46155;52.364;6.580;2023-08-17T13:25:08;101760.41;;;18.22;100.00
60307;BME280;46155;52.364;6.580;2023-08-17T13:27:34;101767.88;;;18.31;100.00
60307;BME280;46155;52.364;6.580;2023-08-17T13:29:59;101772.44;;;18.33;100.00
60307;BME280;46155;52.364;6.580;2023-08-17T13:32:25;101776.47;;;18.45;100.00
60307;BME280;46155;52.364;6.580;2023-08-17T13:34:51;101765.59;;;18.59;100.00
60307;BME280;46155;52.364;6.580;2023-08-17T13:37:16;101766.13;;;18.72;100.00
60307;BME280;46155;52.364;6.580;2023-08-17T13:39:42;101762.66;;;18.53;100.00
60307;BME280;46155;52.364;6.580;2023-08-17T13:42:08;101753.06;;;18.36;100.00
60307;BME280;46155;52.364;6.580;2023-08-17T13:44:33;101741.91;;;18.45;100.00
60307;BME280;46155;52.364;6.580;2023-08-17T13:46:58;101752.09;;;18.55;100.00
60307;BME280;46155;52.364;6.580;2023-08-17T13:49:24;101747.41;;;18.49;100.00
60307;BME280;46155;52.364;6.580;2023-08-17T13:51:49;101745.66;;;18.50;100.00
60307;BME280;46155;52.364;6.580;2023-08-17T13:54:20;101753.78;;;18.74;100.00
60307;BME280;46155;52.364;6.580;2023-08-17T13:56:45;101753.03;;;18.98;100.00
60307;BME280;46155;52.364;6.580;2023-08-17T13:59:12;101758.34;;;18.98;100.00
60307;BME280;46155;52.364;6.580;2023-08-17T14:01:38;101759.59;;;19.06;100.00
60307;BME280;46155;52.364;6.580;2023-08-17T14:04:03;101759.78;;;18.89;100.00
60307;BME280;46155;52.364;6.580;2023-08-17T14:06:32;101760.31;;;19.02;100.00
60307;BME280;46155;52.364;6.580;2023-08-17T14:08:57;101753.88;;;18.75;100.00
60307;BME280;46155;52.364;6.580;2023-08-17T14:11:23;101749.50;;;18.56;100.00
60307;BME280;46155;52.364;6.580;2023-08-17T14:13:48;101752.50;;;18.64;100.00
60307;BME280;46155;52.364;6.580;2023-08-17T14:16:13;101745.75;;;18.72;100.00
60307;BME280;46155;52.364;6.580;2023-08-17T14:18:38;101750.28;;;18.75;100.00
60307;BME280;46155;52.364;6.580;2023-08-17T14:21:04;101750.94;;;18.69;100.00
60307;BME280;46155;52.364;6.580;2023-08-17T14:23:29;101750.16;;;18.72;100.00
60307;BME280;46155;52.364;6.580;2023-08-17T14:25:55;101747.56;;;18.73;100.00
60307;BME280;46155;52.364;6.580;2023-08-17T14:28:20;101741.88;;;18.64;100.00
60307;BME280;46155;52.364;6.580;2023-08-17T14:30:46;101746.19;;;18.62;100.00
60307;BME280;46155;52.364;6.580;2023-08-17T14:33:11;101740.03;;;18.63;100.00
60307;BME280;46155;52.364;6.580;2023-08-17T14:35:39;101734.84;;;18.45;100.00
60307;BME280;46155;52.364;6.580;2023-08-17T14:38:04;101733.25;;;18.29;100.00
60307;BME280;46155;52.364;6.580;2023-08-17T14:40:30;101737.03;;;18.34;100.00
60307;BME280;46155;52.364;6.580;2023-08-17T14:42:55;101726.41;;;18.34;100.00
60307;BME280;46155;52.364;6.580;2023-08-17T14:45:20;101725.84;;;18.41;100.00
60307;BME280;46155;52.364;6.580;2023-08-17T14:47:46;101720.91;;;18.51;100.00
60307;BME280;46155;52.364;6.580;2023-08-17T14:50:11;101722.97;;;18.58;100.00
60307;BME280;46155;52.364;6.580;2023-08-17T14:52:39;101720.72;;;18.46;100.00
60307;BME280;46155;52.364;6.580;2023-08-17T14:55:04;101726.16;;;18.49;100.00
60307;BME280;46155;52.364;6.580;2023-08-17T14:57:30;101724.31;;;18.48;100.00
60307;BME280;46155;52.364;6.580;2023-08-17T14:59:55;101724.72;;;18.57;100.00
60307;BME280;46155;52.364;6.580;2023-08-17T15:02:21;101726.81;;;18.65;100.00
60307;BME280;46155;52.364;6.580;2023-08-17T15:04:46;101722.44;;;18.67;100.00
60307;BME280;46155;52.364;6.580;2023-08-17T15:07:12;101710.44;;;18.55;100.00
60307;BME280;46155;52.364;6.580;2023-08-17T15:09:38;101702.34;;;18.52;100.00
60307;BME280;46155;52.364;6.580;2023-08-17T15:12:04;101702.41;;;18.54;100.00
60307;BME280;46155;52.364;6.580;2023-08-17T15:14:30;101701.38;;;18.50;100.00
60307;BME280;46155;52.364;6.580;2023-08-17T15:16:55;101706.00;;;18.54;100.00
60307;BME280;46155;52.364;6.580;2023-08-17T15:19:20;101709.75;;;18.59;100.00
60307;BME280;46155;52.364;6.580;2023-08-17T15:21:46;101710.84;;;18.65;100.00
60307;BME280;46155;52.364;6.580;2023-08-17T15:24:11;101704.09;;;18.73;100.00
60307;BME280;46155;52.364;6.580;2023-08-17T15:26:37;101707.84;;;18.78;100.00
60307;BME280;46155;52.364;6.580;2023-08-17T15:29:02;101707.72;;;18.75;100.00
60307;BME280;46155;52.364;6.580;2023-08-17T15:31:28;101705.59;;;18.66;100.00
60307;BME280;46155;52.364;6.580;2023-08-17T15:33:53;101703.72;;;18.64;100.00
60307;BME280;46155;52.364;6.580;2023-08-17T15:36:18;101696.72;;;18.66;100.00
60307;BME280;46155;52.364;6.580;2023-08-17T15:38:47;101703.06;;;18.69;100.00
60307;BME280;46155;52.364;6.580;2023-08-17T15:41:13;101704.00;;;18.70;100.00